createdAt,value
2019-02-28T00:00:18.686Z,4.06
2019-02-28T00:04:22.672Z,4.14
2019-02-28T00:08:25.211Z,3.99
2019-02-28T00:12:27.543Z,4.00
2019-02-28T00:16:30.229Z,3.88
2019-02-28T00:20:32.778Z,4.00
2019-02-28T00:24:35.293Z,3.95
2019-02-28T00:28:37.857Z,4.02
2019-02-28T00:32:40.831Z,3.91
2019-02-28T00:36:43.485Z,3.88
2019-02-28T00:40:45.891Z,3.87
2019-02-28T00:44:50.191Z,3.94
2019-02-28T00:48:53.944Z,3.98
2019-02-28T00:52:56.860Z,3.84
2019-02-28T00:56:59.270Z,3.87
2019-02-28T01:01:01.706Z,3.91
2019-02-28T01:05:06.124Z,3.76
2019-02-28T01:09:10.288Z,3.65
2019-02-28T01:13:12.830Z,3.54
2019-02-28T01:17:15.316Z,3.47
2019-02-28T01:21:17.730Z,3.40
2019-02-28T01:25:20.316Z,3.37
2019-02-28T01:29:22.745Z,3.38
2019-02-28T01:33:25.708Z,3.34
2019-02-28T01:37:28.613Z,3.41
2019-02-28T01:41:31.180Z,3.36
2019-02-28T01:45:34.247Z,3.21
2019-02-28T01:49:36.560Z,3.18
2019-02-28T01:53:39.661Z,3.08
2019-02-28T01:57:43.995Z,3.08
2019-02-28T02:01:46.298Z,3.12
2019-02-28T02:05:51.860Z,3.14
2019-02-28T02:09:52.694Z,3.07
2019-02-28T02:13:55.011Z,2.94
2019-02-28T02:17:57.718Z,2.98
2019-02-28T02:22:00.175Z,2.87
2019-02-28T02:26:02.585Z,2.84
2019-02-28T02:30:13.373Z,2.82
2019-02-28T02:34:10.308Z,2.73
2019-02-28T02:38:14.071Z,2.63
2019-02-28T02:42:16.728Z,2.60
2019-02-28T02:46:21.248Z,2.66
2019-02-28T02:50:23.697Z,2.67
2019-02-28T02:54:26.036Z,2.72
2019-02-28T02:58:28.479Z,2.59
2019-02-28T03:02:33.177Z,2.65
2019-02-28T03:06:34.941Z,2.75
2019-02-28T03:10:37.470Z,2.62
2019-02-28T03:14:39.879Z,2.61
2019-02-28T03:18:42.385Z,2.58
2019-02-28T03:22:44.898Z,2.52
2019-02-28T03:26:47.345Z,2.45
2019-02-28T03:30:49.902Z,2.47
2019-02-28T03:34:58.223Z,2.35
2019-02-28T03:38:56.364Z,2.23
2019-02-28T03:43:05.251Z,2.25
2019-02-28T03:47:04.095Z,2.31
2019-02-28T03:51:06.508Z,2.19
2019-02-28T03:55:09.184Z,2.10
2019-02-28T03:59:18.489Z,2.09
2019-02-28T04:03:15.851Z,2.06
2019-02-28T04:07:18.277Z,2.01
2019-02-28T04:11:20.842Z,1.93
2019-02-28T04:15:23.454Z,1.83
2019-02-28T04:19:26.008Z,1.83
2019-02-28T04:23:35.520Z,1.81
2019-02-28T04:27:32.585Z,1.77
2019-02-28T04:31:37.747Z,1.62
2019-02-28T04:35:40.223Z,1.51
2019-02-28T04:39:42.672Z,1.57
2019-02-28T04:43:45.182Z,1.37
2019-02-28T04:47:47.620Z,1.38
2019-02-28T04:51:50.700Z,1.36
2019-02-28T04:55:53.330Z,1.32
2019-02-28T04:59:55.830Z,1.21
2019-02-28T05:03:59.236Z,1.19
2019-02-28T05:08:05.731Z,1.29
2019-02-28T05:12:06.349Z,1.23
2019-02-28T05:16:09.312Z,1.22
2019-02-28T05:20:12.961Z,1.18
2019-02-28T05:24:15.435Z,1.15
2019-02-28T05:28:17.816Z,1.12
2019-02-28T05:32:20.591Z,0.92
2019-02-28T05:36:23.007Z,1.00
2019-02-28T05:40:25.682Z,1.08
2019-02-28T05:44:27.995Z,0.98
2019-02-28T05:48:30.410Z,1.04
2019-02-28T05:52:33.702Z,1.04
2019-02-28T05:56:38.444Z,0.97
2019-02-28T06:00:40.823Z,0.93
2019-02-28T06:04:43.230Z,1.01
2019-02-28T06:08:45.572Z,1.06
2019-02-28T06:12:48.005Z,1.12
2019-02-28T06:16:50.330Z,1.34
2019-02-28T06:20:52.866Z,1.46
2019-02-28T06:24:55.170Z,1.48
2019-02-28T06:28:57.720Z,1.51
2019-02-28T06:33:00.067Z,1.50
2019-02-28T06:37:03.735Z,1.39
2019-02-28T06:41:07.632Z,1.30
2019-02-28T06:45:13.360Z,1.35
2019-02-28T06:49:15.695Z,1.40
2019-02-28T06:53:18.241Z,1.28
2019-02-28T06:57:20.635Z,1.38
2019-02-28T07:01:23.222Z,1.40
2019-02-28T07:05:26.320Z,1.50
2019-02-28T07:09:30.536Z,1.65
2019-02-28T07:13:33.190Z,1.75
2019-02-28T07:17:35.618Z,1.99
2019-02-28T07:21:43.001Z,2.16
2019-02-28T07:25:44.286Z,2.30
2019-02-28T07:29:46.110Z,2.47
2019-02-28T07:33:48.606Z,2.65
2019-02-28T07:37:54.418Z,2.73
2019-02-28T07:41:58.817Z,2.85
2019-02-28T07:46:01.097Z,2.99
2019-02-28T07:50:04.070Z,3.07
2019-02-28T07:54:06.611Z,3.22
2019-02-28T07:58:09.125Z,3.41
2019-02-28T08:02:11.711Z,3.35
2019-02-28T08:06:14.245Z,3.27
2019-02-28T08:10:18.911Z,3.33
2019-02-28T08:14:21.365Z,3.33
2019-02-28T08:18:23.731Z,3.39
2019-02-28T08:22:26.266Z,3.34
2019-02-28T08:26:28.590Z,3.18
2019-02-28T08:30:31.160Z,3.22
2019-02-28T08:34:33.584Z,3.37
2019-02-28T08:38:35.987Z,3.50
2019-02-28T08:42:39.633Z,3.63
2019-02-28T08:46:43.495Z,3.73
2019-02-28T08:50:47.474Z,3.72
2019-02-28T08:54:49.886Z,3.66
2019-02-28T08:58:52.230Z,3.43
2019-02-28T09:02:54.670Z,3.50
2019-02-28T09:06:57.110Z,3.48
2019-02-28T09:11:01.041Z,3.40
2019-02-28T09:15:03.424Z,3.40
2019-02-28T09:19:06.156Z,3.17
2019-02-28T09:23:08.510Z,3.04
2019-02-28T09:27:12.289Z,3.04
2019-02-28T09:31:14.754Z,2.94
2019-02-28T09:35:17.311Z,2.89
2019-02-28T09:39:20.326Z,2.97
2019-02-28T09:43:23.921Z,2.88
2019-02-28T09:47:27.517Z,3.02
2019-02-28T09:51:32.093Z,3.00
2019-02-28T09:55:35.459Z,3.06
2019-02-28T09:59:38.670Z,3.17
2019-02-28T10:03:41.333Z,3.10
2019-02-28T10:07:44.084Z,3.44
2019-02-28T10:11:46.629Z,3.59
2019-02-28T10:15:49.240Z,3.54
2019-02-28T10:19:52.242Z,3.42
2019-02-28T10:23:57.063Z,3.48
2019-02-28T10:28:02.628Z,3.56
2019-02-28T10:32:06.193Z,3.29
2019-02-28T10:36:09.348Z,3.10
2019-02-28T10:40:17.726Z,3.05
2019-02-28T10:44:19.216Z,3.10
2019-02-28T10:48:21.744Z,3.13
2019-02-28T10:52:26.999Z,3.15
2019-02-28T10:56:31.737Z,3.05
2019-02-28T11:00:33.803Z,3.18
2019-02-28T11:04:36.241Z,3.25
2019-02-28T11:08:38.677Z,3.30
2019-02-28T11:12:41.902Z,3.19
2019-02-28T11:16:44.382Z,3.13
2019-02-28T11:20:47.197Z,3.14
2019-02-28T11:24:50.062Z,3.06
2019-02-28T11:28:52.615Z,3.10
2019-02-28T11:32:55.594Z,3.06
2019-02-28T11:36:58.018Z,3.15
2019-02-28T11:41:00.577Z,3.13
2019-02-28T11:45:03.107Z,3.08
2019-02-28T11:49:07.052Z,3.14
2019-02-28T11:53:09.531Z,3.11
2019-02-28T11:57:12.016Z,3.09
2019-02-28T12:01:14.452Z,3.12
2019-02-28T12:05:16.897Z,3.15
2019-02-28T12:09:20.043Z,3.21
2019-02-28T12:13:22.703Z,3.12
2019-02-28T12:17:25.533Z,3.08
2019-02-28T12:21:30.915Z,3.11
2019-02-28T12:25:33.701Z,3.05
2019-02-28T12:29:36.387Z,3.05
2019-02-28T12:33:38.820Z,2.94
2019-02-28T12:37:41.381Z,2.95
2019-02-28T12:41:43.851Z,2.78
2019-02-28T12:45:47.349Z,2.76
2019-02-28T12:49:50.027Z,2.82
2019-02-28T12:53:52.377Z,2.85
2019-02-28T12:57:57.681Z,2.81
2019-02-28T13:01:58.947Z,2.79
2019-02-28T13:06:02.617Z,2.73
2019-02-28T13:10:05.810Z,2.73
2019-02-28T13:14:08.527Z,2.60
2019-02-28T13:18:10.942Z,2.67
2019-02-28T13:22:13.494Z,2.63
2019-02-28T13:26:16.320Z,2.62
2019-02-28T13:30:23.505Z,2.66
2019-02-28T13:34:29.319Z,2.55
2019-02-28T13:38:31.407Z,2.48
2019-02-28T13:42:36.293Z,2.51
2019-02-28T13:46:38.477Z,2.58
2019-02-28T13:50:40.840Z,2.52
2019-02-28T13:54:43.379Z,2.47
2019-02-28T13:58:47.106Z,2.38
2019-02-28T14:02:49.746Z,2.29
2019-02-28T14:06:52.443Z,2.26
2019-02-28T14:10:56.441Z,2.23
2019-02-28T14:14:58.760Z,2.12
2019-02-28T14:19:01.282Z,2.04
2019-02-28T14:23:03.624Z,1.98
2019-02-28T14:27:06.186Z,1.84
2019-02-28T14:31:08.985Z,1.73
2019-02-28T14:35:11.995Z,1.62
2019-02-28T14:39:14.410Z,1.57
2019-02-28T14:43:19.544Z,1.53
2019-02-28T14:47:20.921Z,1.50
2019-02-28T14:51:25.517Z,1.44
2019-02-28T14:55:29.246Z,1.40
2019-02-28T14:59:32.023Z,1.35
2019-02-28T15:03:35.909Z,1.29
2019-02-28T15:07:42.039Z,1.24
2019-02-28T15:11:47.088Z,1.14
2019-02-28T15:15:53.099Z,1.09
2019-02-28T15:19:56.986Z,1.01
2019-02-28T15:23:57.867Z,0.96
2019-02-28T15:28:00.180Z,0.90
2019-02-28T15:32:02.821Z,0.85
2019-02-28T15:36:07.101Z,0.81
2019-02-28T15:40:12.006Z,0.75
2019-02-28T15:44:14.472Z,0.68
2019-02-28T15:48:16.958Z,0.63
2019-02-28T15:52:19.379Z,0.55
2019-02-28T15:56:22.013Z,0.49
2019-02-28T16:00:28.474Z,0.45
2019-02-28T16:04:31.105Z,0.41
2019-02-28T16:08:33.506Z,0.27
2019-02-28T16:12:35.969Z,0.11
2019-02-28T16:16:38.293Z,-0.19
2019-02-28T16:20:40.809Z,-0.48
2019-02-28T16:24:47.553Z,-0.65
2019-02-28T16:28:51.518Z,-0.72
2019-02-28T16:32:54.115Z,-0.76
2019-02-28T16:36:57.521Z,-0.79
2019-02-28T16:41:01.557Z,-0.90
2019-02-28T16:45:06.142Z,-1.00
2019-02-28T16:49:10.522Z,-1.04
2019-02-28T16:53:16.212Z,-1.14
2019-02-28T16:57:18.000Z,-1.21
2019-02-28T17:01:21.373Z,-1.27
2019-02-28T17:05:27.973Z,-1.31
2019-02-28T17:09:34.325Z,-1.34
2019-02-28T17:13:42.345Z,-1.45
2019-02-28T17:17:54.500Z,-1.50
2019-02-28T17:21:56.974Z,-1.48
2019-02-28T17:26:00.660Z,-1.51
2019-02-28T17:30:14.525Z,-1.52
2019-02-28T17:34:23.713Z,-1.53
2019-02-28T17:38:23.484Z,-1.53
2019-02-28T17:42:25.998Z,-1.51
2019-02-28T17:46:28.355Z,-1.50
2019-02-28T17:51:18.742Z,-1.52
2019-02-28T17:55:59.224Z,-1.52
2019-02-28T18:00:51.819Z,-1.54
2019-02-28T18:05:36.549Z,-1.55
2019-02-28T18:10:03.395Z,-1.56
2019-02-28T18:14:46.899Z,-1.63
2019-02-28T18:19:45.275Z,-1.66
2019-02-28T18:24:52.689Z,-1.73
2019-02-28T18:29:25.854Z,-1.81
2019-02-28T18:33:28.329Z,-1.85
2019-02-28T18:37:30.709Z,-1.88
2019-02-28T18:41:33.607Z,-1.91
2019-02-28T18:45:36.509Z,-1.99
2019-02-28T18:49:39.333Z,-2.07
2019-02-28T18:53:42.015Z,-2.17
2019-02-28T18:57:44.629Z,-2.27
2019-02-28T19:01:47.391Z,-2.32
2019-02-28T19:05:50.039Z,-2.35
2019-02-28T19:09:52.403Z,-2.40
2019-02-28T19:13:55.100Z,-2.42
2019-02-28T19:17:57.750Z,-2.44
2019-02-28T19:22:00.295Z,-2.41
2019-02-28T19:26:02.666Z,-2.40
2019-02-28T19:30:06.650Z,-2.37
2019-02-28T19:34:10.550Z,-2.38
2019-02-28T19:38:13.158Z,-2.44
2019-02-28T19:42:17.729Z,-2.52
2019-02-28T19:46:20.415Z,-2.57
2019-02-28T19:50:23.992Z,-2.67
2019-02-28T19:54:26.717Z,-2.77
2019-02-28T19:58:29.375Z,-2.77
2019-02-28T20:02:32.027Z,-2.82
2019-02-28T20:06:34.767Z,-2.88
2019-02-28T20:10:37.760Z,-2.93
2019-02-28T20:14:40.554Z,-3.00
2019-02-28T20:18:43.124Z,-3.12
2019-02-28T20:22:45.544Z,-3.31
2019-02-28T20:26:48.224Z,-3.47
2019-02-28T20:30:50.783Z,-3.58
2019-02-28T20:34:53.193Z,-3.67
2019-02-28T20:38:55.808Z,-3.72
2019-02-28T20:42:58.678Z,-3.72
2019-02-28T20:47:01.282Z,-3.72
2019-02-28T20:51:04.143Z,-3.73
2019-02-28T20:55:06.973Z,-3.71
2019-02-28T20:59:10.428Z,-3.68
2019-02-28T21:03:14.731Z,-3.67
2019-02-28T21:07:17.430Z,-3.66
2019-02-28T21:11:20.053Z,-3.67
2019-02-28T21:15:24.695Z,-3.71
2019-02-28T21:19:27.181Z,-3.78
2019-02-28T21:23:29.839Z,-3.81
2019-02-28T21:27:32.464Z,-3.82
2019-02-28T21:31:35.160Z,-3.81
2019-02-28T21:35:37.785Z,-3.82
2019-02-28T21:39:40.749Z,-3.81
2019-02-28T21:43:43.833Z,-3.81
2019-02-28T21:47:46.242Z,-3.85
2019-02-28T21:51:48.719Z,-3.95
2019-02-28T21:55:52.879Z,-4.11
2019-02-28T21:59:55.191Z,-4.30
2019-02-28T22:03:57.599Z,-4.45
2019-02-28T22:07:59.912Z,-4.63
2019-02-28T22:12:02.306Z,-4.79
2019-02-28T22:16:06.931Z,-4.89
2019-02-28T22:20:10.656Z,-5.00
2019-02-28T22:24:12.977Z,-4.96
2019-02-28T22:28:15.568Z,-5.02
2019-02-28T22:32:24.617Z,-5.12
2019-02-28T22:36:33.693Z,-5.16
2019-02-28T22:40:36.071Z,-5.35
2019-02-28T22:44:38.911Z,-5.38
2019-02-28T22:48:41.346Z,-5.43
2019-02-28T22:52:44.067Z,-5.51
2019-02-28T22:56:46.727Z,-5.56
2019-02-28T23:01:06.457Z,-5.56
2019-02-28T23:05:09.332Z,-5.58
2019-02-28T23:09:11.451Z,-5.60
2019-02-28T23:13:13.812Z,-5.58
2019-02-28T23:17:16.406Z,-5.58
2019-02-28T23:21:19.076Z,-5.77
2019-02-28T23:25:23.081Z,-5.67
2019-02-28T23:29:27.751Z,-5.69
2019-02-28T23:33:30.407Z,-5.75
2019-02-28T23:37:32.782Z,-5.85
2019-02-28T23:41:35.369Z,-5.93
2019-02-28T23:45:38.628Z,-5.85
2019-02-28T23:49:41.263Z,-5.95
2019-02-28T23:53:43.821Z,-5.96
2019-02-28T23:57:46.557Z,-6.01
